sensor_id;sensor_type;location;lat;lon;timestamp;P1;durP1;ratioP1;P2;durP2;ratioP2
13250;SDS011;6692;50.710;7.180;2023-07-13T00:00:37;1999.90;;;999.90;;
13250;SDS011;6692;50.710;7.180;2023-07-13T00:02:38;1999.90;;;999.90;;
13250;SDS011;6692;50.710;7.180;2023-07-13T00:04:39;1999.90;;;999.90;;
13250;SDS011;6692;50.710;7.180;2023-07-13T00:06:40;1999.90;;;999.90;;
13250;SDS011;6692;50.710;7.180;2023-07-13T00:08:40;1999.90;;;999.90;;
13250;SDS011;6692;50.710;7.180;2023-07-13T00:10:41;1999.90;;;999.90;;
13250;SDS011;6692;50.710;7.180;2023-07-13T00:12:42;1999.90;;;999.90;;
13250;SDS011;6692;50.710;7.180;2023-07-13T00:14:43;1999.90;;;999.90;;
13250;SDS011;6692;50.710;7.180;2023-07-13T00:16:43;1999.90;;;999.90;;
13250;SDS011;6692;50.710;7.180;2023-07-13T00:18:45;1999.90;;;999.90;;
13250;SDS011;6692;50.710;7.180;2023-07-13T00:20:45;1999.90;;;999.90;;
13250;SDS011;6692;50.710;7.180;2023-07-13T00:22:46;1999.90;;;999.90;;
13250;SDS011;6692;50.710;7.180;2023-07-13T00:24:47;1999.90;;;999.90;;
13250;SDS011;6692;50.710;7.180;2023-07-13T00:26:48;1999.90;;;999.90;;
13250;SDS011;6692;50.710;7.180;2023-07-13T00:28:49;1999.90;;;999.90;;
13250;SDS011;6692;50.710;7.180;2023-07-13T00:30:49;1999.90;;;999.90;;
13250;SDS011;6692;50.710;7.180;2023-07-13T00:32:50;1999.90;;;999.90;;
13250;SDS011;6692;50.710;7.180;2023-07-13T00:34:51;1999.90;;;999.90;;
13250;SDS011;6692;50.710;7.180;2023-07-13T00:36:52;1999.90;;;999.90;;
13250;SDS011;6692;50.710;7.180;2023-07-13T00:38:52;1999.90;;;999.90;;
13250;SDS011;6692;50.710;7.180;2023-07-13T00:40:54;1999.90;;;999.90;;
13250;SDS011;6692;50.710;7.180;2023-07-13T00:42:56;1999.90;;;999.90;;
13250;SDS011;6692;50.710;7.180;2023-07-13T00:45:02;1999.90;;;999.90;;
13250;SDS011;6692;50.710;7.180;2023-07-13T00:47:02;1999.90;;;999.90;;
13250;SDS011;6692;50.710;7.180;2023-07-13T00:49:05;1999.90;;;999.90;;
13250;SDS011;6692;50.710;7.180;2023-07-13T00:51:04;1999.90;;;999.90;;
13250;SDS011;6692;50.710;7.180;2023-07-13T00:53:05;1999.90;;;999.90;;
13250;SDS011;6692;50.710;7.180;2023-07-13T00:55:06;1999.90;;;999.90;;
13250;SDS011;6692;50.710;7.180;2023-07-13T00:57:08;1999.90;;;999.90;;
13250;SDS011;6692;50.710;7.180;2023-07-13T00:59:08;1999.90;;;999.90;;
13250;SDS011;6692;50.710;7.180;2023-07-13T01:01:09;1999.90;;;999.90;;
13250;SDS011;6692;50.710;7.180;2023-07-13T01:03:10;1999.90;;;999.90;;
13250;SDS011;6692;50.710;7.180;2023-07-13T01:05:11;1999.90;;;999.90;;
13250;SDS011;6692;50.710;7.180;2023-07-13T01:07:12;1999.90;;;999.90;;
13250;SDS011;6692;50.710;7.180;2023-07-13T01:09:13;1999.90;;;999.90;;
13250;SDS011;6692;50.710;7.180;2023-07-13T01:11:17;1999.90;;;999.90;;
13250;SDS011;6692;50.710;7.180;2023-07-13T01:13:14;1999.90;;;999.90;;
13250;SDS011;6692;50.710;7.180;2023-07-13T01:17:29;1999.90;;;999.90;;
13250;SDS011;6692;50.710;7.180;2023-07-13T01:19:35;1999.90;;;999.90;;
13250;SDS011;6692;50.710;7.180;2023-07-13T01:21:35;1999.90;;;999.90;;
13250;SDS011;6692;50.710;7.180;2023-07-13T01:23:35;1999.90;;;999.90;;
13250;SDS011;6692;50.710;7.180;2023-07-13T01:25:37;1999.90;;;999.90;;
13250;SDS011;6692;50.710;7.180;2023-07-13T01:27:37;1999.90;;;999.90;;
13250;SDS011;6692;50.710;7.180;2023-07-13T01:29:39;1999.90;;;999.90;;
13250;SDS011;6692;50.710;7.180;2023-07-13T01:31:39;1999.90;;;999.90;;
13250;SDS011;6692;50.710;7.180;2023-07-13T01:33:40;1999.90;;;999.90;;
13250;SDS011;6692;50.710;7.180;2023-07-13T01:35:41;1999.90;;;999.90;;
13250;SDS011;6692;50.710;7.180;2023-07-13T01:37:42;1999.90;;;999.90;;
13250;SDS011;6692;50.710;7.180;2023-07-13T01:39:42;1999.90;;;999.90;;
13250;SDS011;6692;50.710;7.180;2023-07-13T01:41:43;1999.90;;;999.90;;
13250;SDS011;6692;50.710;7.180;2023-07-13T01:43:44;1999.90;;;999.90;;
13250;SDS011;6692;50.710;7.180;2023-07-13T01:45:45;1999.90;;;999.90;;
13250;SDS011;6692;50.710;7.180;2023-07-13T01:47:46;1999.90;;;999.90;;
13250;SDS011;6692;50.710;7.180;2023-07-13T01:49:46;1999.90;;;999.90;;
13250;SDS011;6692;50.710;7.180;2023-07-13T01:51:47;1999.90;;;999.90;;
13250;SDS011;6692;50.710;7.180;2023-07-13T01:53:48;1999.90;;;999.90;;
13250;SDS011;6692;50.710;7.180;2023-07-13T01:55:49;1999.90;;;999.90;;
13250;SDS011;6692;50.710;7.180;2023-07-13T01:57:50;1999.90;;;999.90;;
13250;SDS011;6692;50.710;7.180;2023-07-13T01:59:51;1999.90;;;999.90;;
13250;SDS011;6692;50.710;7.180;2023-07-13T02:01:52;1999.90;;;999.90;;
13250;SDS011;6692;50.710;7.180;2023-07-13T02:03:53;1999.90;;;999.90;;
13250;SDS011;6692;50.710;7.180;2023-07-13T02:05:54;1999.90;;;999.90;;
13250;SDS011;6692;50.710;7.180;2023-07-13T02:07:55;1999.90;;;999.90;;
13250;SDS011;6692;50.710;7.180;2023-07-13T02:09:55;1999.90;;;999.90;;
13250;SDS011;6692;50.710;7.180;2023-07-13T02:11:56;1999.90;;;999.90;;
13250;SDS011;6692;50.710;7.180;2023-07-13T02:13:57;1999.90;;;999.90;;
13250;SDS011;6692;50.710;7.180;2023-07-13T02:15:57;1999.90;;;999.90;;
13250;SDS011;6692;50.710;7.180;2023-07-13T02:17:58;1999.90;;;999.90;;
13250;SDS011;6692;50.710;7.180;2023-07-13T02:19:59;1999.90;;;999.90;;
13250;SDS011;6692;50.710;7.180;2023-07-13T02:22:00;1999.90;;;999.90;;
13250;SDS011;6692;50.710;7.180;2023-07-13T02:24:01;1999.90;;;999.90;;
13250;SDS011;6692;50.710;7.180;2023-07-13T02:26:03;1999.90;;;999.90;;
13250;SDS011;6692;50.710;7.180;2023-07-13T02:28:03;1999.90;;;999.90;;
13250;SDS011;6692;50.710;7.180;2023-07-13T02:30:04;1999.90;;;999.90;;
13250;SDS011;6692;50.710;7.180;2023-07-13T02:32:06;1999.90;;;999.90;;
13250;SDS011;6692;50.710;7.180;2023-07-13T02:34:07;1999.90;;;999.90;;
13250;SDS011;6692;50.710;7.180;2023-07-13T02:36:08;1999.90;;;999.90;;
13250;SDS011;6692;50.710;7.180;2023-07-13T02:38:09;1999.90;;;999.90;;
13250;SDS011;6692;50.710;7.180;2023-07-13T02:40:09;1999.90;;;999.90;;
13250;SDS011;6692;50.710;7.180;2023-07-13T02:42:10;1999.90;;;999.90;;
13250;SDS011;6692;50.710;7.180;2023-07-13T02:44:12;1999.90;;;999.90;;
13250;SDS011;6692;50.710;7.180;2023-07-13T02:46:12;1999.90;;;999.90;;
13250;SDS011;6692;50.710;7.180;2023-07-13T02:48:13;1999.90;;;999.90;;
13250;SDS011;6692;50.710;7.180;2023-07-13T02:50:14;1999.90;;;999.90;;
13250;SDS011;6692;50.710;7.180;2023-07-13T02:52:15;1999.90;;;999.90;;
13250;SDS011;6692;50.710;7.180;2023-07-13T02:54:15;1999.90;;;999.90;;
13250;SDS011;6692;50.710;7.180;2023-07-13T02:56:16;1999.90;;;999.90;;
13250;SDS011;6692;50.710;7.180;2023-07-13T02:58:17;1999.90;;;999.90;;
13250;SDS011;6692;50.710;7.180;2023-07-13T03:00:17;1999.90;;;999.90;;
13250;SDS011;6692;50.710;7.180;2023-07-13T03:02:18;1999.90;;;999.90;;
13250;SDS011;6692;50.710;7.180;2023-07-13T03:04:20;1999.90;;;999.90;;
13250;SDS011;6692;50.710;7.180;2023-07-13T03:06:20;1999.90;;;999.90;;
13250;SDS011;6692;50.710;7.180;2023-07-13T03:08:22;1999.90;;;999.90;;
13250;SDS011;6692;50.710;7.180;2023-07-13T03:10:22;1999.90;;;999.90;;
13250;SDS011;6692;50.710;7.180;2023-07-13T03:12:23;1999.90;;;999.90;;
13250;SDS011;6692;50.710;7.180;2023-07-13T03:14:24;1999.90;;;999.90;;
13250;SDS011;6692;50.710;7.180;2023-07-13T03:16:25;1999.90;;;999.90;;
13250;SDS011;6692;50.710;7.180;2023-07-13T03:18:26;1999.90;;;999.90;;
13250;SDS011;6692;50.710;7.180;2023-07-13T03:20:27;1999.90;;;999.90;;
13250;SDS011;6692;50.710;7.180;2023-07-13T03:22:27;1999.90;;;999.90;;
13250;SDS011;6692;50.710;7.180;2023-07-13T03:24:28;1999.90;;;999.90;;
13250;SDS011;6692;50.710;7.180;2023-07-13T03:26:29;1999.90;;;999.90;;
13250;SDS011;6692;50.710;7.180;2023-07-13T03:28:29;1999.90;;;999.90;;
13250;SDS011;6692;50.710;7.180;2023-07-13T03:30:30;1999.90;;;999.90;;
13250;SDS011;6692;50.710;7.180;2023-07-13T03:32:32;1999.90;;;999.90;;
13250;SDS011;6692;50.710;7.180;2023-07-13T03:34:32;1999.90;;;999.90;;
13250;SDS011;6692;50.710;7.180;2023-07-13T03:36:33;1999.90;;;999.90;;
13250;SDS011;6692;50.710;7.180;2023-07-13T03:38:34;1999.90;;;999.90;;
13250;SDS011;6692;50.710;7.180;2023-07-13T03:40:35;1999.90;;;999.90;;
13250;SDS011;6692;50.710;7.180;2023-07-13T03:42:36;1999.90;;;999.90;;
13250;SDS011;6692;50.710;7.180;2023-07-13T03:44:36;1999.90;;;999.90;;
13250;SDS011;6692;50.710;7.180;2023-07-13T03:46:38;1999.90;;;999.90;;
13250;SDS011;6692;50.710;7.180;2023-07-13T03:48:39;1999.90;;;999.90;;
13250;SDS011;6692;50.710;7.180;2023-07-13T03:50:40;1999.90;;;999.90;;
13250;SDS011;6692;50.710;7.180;2023-07-13T03:52:41;1999.90;;;999.90;;
13250;SDS011;6692;50.710;7.180;2023-07-13T03:54:42;1999.90;;;999.90;;
13250;SDS011;6692;50.710;7.180;2023-07-13T03:56:43;1999.90;;;999.90;;
13250;SDS011;6692;50.710;7.180;2023-07-13T03:58:44;1999.90;;;999.90;;
13250;SDS011;6692;50.710;7.180;2023-07-13T04:00:44;1999.90;;;999.90;;
13250;SDS011;6692;50.710;7.180;2023-07-13T04:02:45;1999.90;;;999.90;;
13250;SDS011;6692;50.710;7.180;2023-07-13T04:04:46;1999.90;;;999.90;;
13250;SDS011;6692;50.710;7.180;2023-07-13T04:06:48;1999.90;;;999.90;;
13250;SDS011;6692;50.710;7.180;2023-07-13T04:08:49;1999.90;;;999.90;;
13250;SDS011;6692;50.710;7.180;2023-07-13T04:10:49;1999.90;;;999.90;;
13250;SDS011;6692;50.710;7.180;2023-07-13T04:12:50;1999.90;;;999.90;;
13250;SDS011;6692;50.710;7.180;2023-07-13T04:14:51;1999.90;;;999.90;;
13250;SDS011;6692;50.710;7.180;2023-07-13T04:16:53;1999.90;;;999.90;;
13250;SDS011;6692;50.710;7.180;2023-07-13T04:18:54;1999.90;;;999.90;;
13250;SDS011;6692;50.710;7.180;2023-07-13T04:20:54;1999.90;;;999.90;;
13250;SDS011;6692;50.710;7.180;2023-07-13T04:22:55;1999.90;;;999.90;;
13250;SDS011;6692;50.710;7.180;2023-07-13T04:24:55;1999.90;;;999.90;;
13250;SDS011;6692;50.710;7.180;2023-07-13T04:26:57;1999.90;;;999.90;;
13250;SDS011;6692;50.710;7.180;2023-07-13T04:28:59;1999.90;;;999.90;;
13250;SDS011;6692;50.710;7.180;2023-07-13T04:31:00;1999.90;;;999.90;;
13250;SDS011;6692;50.710;7.180;2023-07-13T04:33:01;1999.90;;;999.90;;
13250;SDS011;6692;50.710;7.180;2023-07-13T04:35:02;1999.90;;;999.90;;
13250;SDS011;6692;50.710;7.180;2023-07-13T04:37:03;1999.90;;;999.90;;
13250;SDS011;6692;50.710;7.180;2023-07-13T04:39:04;1999.90;;;999.90;;
13250;SDS011;6692;50.710;7.180;2023-07-13T04:41:07;1999.90;;;999.90;;
13250;SDS011;6692;50.710;7.180;2023-07-13T04:43:06;1999.90;;;999.90;;
13250;SDS011;6692;50.710;7.180;2023-07-13T04:45:07;1999.90;;;999.90;;
13250;SDS011;6692;50.710;7.180;2023-07-13T04:47:08;1999.90;;;999.90;;
13250;SDS011;6692;50.710;7.180;2023-07-13T04:49:09;1999.90;;;999.90;;
13250;SDS011;6692;50.710;7.180;2023-07-13T04:51:10;1999.90;;;999.90;;
13250;SDS011;6692;50.710;7.180;2023-07-13T04:53:11;1999.90;;;999.90;;
13250;SDS011;6692;50.710;7.180;2023-07-13T04:55:11;1999.90;;;999.90;;
13250;SDS011;6692;50.710;7.180;2023-07-13T04:57:13;1999.90;;;999.90;;
13250;SDS011;6692;50.710;7.180;2023-07-13T04:59:13;1999.90;;;999.90;;
13250;SDS011;6692;50.710;7.180;2023-07-13T05:01:14;1999.90;;;999.90;;
13250;SDS011;6692;50.710;7.180;2023-07-13T05:03:15;1999.90;;;999.90;;
13250;SDS011;6692;50.710;7.180;2023-07-13T05:05:15;1999.90;;;999.90;;
13250;SDS011;6692;50.710;7.180;2023-07-13T05:07:16;1999.90;;;999.90;;
13250;SDS011;6692;50.710;7.180;2023-07-13T05:09:17;1999.90;;;999.90;;
13250;SDS011;6692;50.710;7.180;2023-07-13T05:11:17;1999.90;;;999.90;;
13250;SDS011;6692;50.710;7.180;2023-07-13T05:13:18;1999.90;;;999.90;;
13250;SDS011;6692;50.710;7.180;2023-07-13T05:15:20;1999.90;;;999.90;;
13250;SDS011;6692;50.710;7.180;2023-07-13T05:17:19;1999.90;;;999.90;;
13250;SDS011;6692;50.710;7.180;2023-07-13T05:19:20;1999.90;;;999.90;;
13250;SDS011;6692;50.710;7.180;2023-07-13T05:21:21;1999.90;;;999.90;;
13250;SDS011;6692;50.710;7.180;2023-07-13T05:23:21;1999.90;;;999.90;;
13250;SDS011;6692;50.710;7.180;2023-07-13T05:25:23;1999.90;;;999.90;;
13250;SDS011;6692;50.710;7.180;2023-07-13T05:27:23;1999.90;;;999.90;;
13250;SDS011;6692;50.710;7.180;2023-07-13T05:29:24;1999.90;;;999.90;;
13250;SDS011;6692;50.710;7.180;2023-07-13T05:31:25;1999.90;;;999.90;;
13250;SDS011;6692;50.710;7.180;2023-07-13T05:33:27;1999.90;;;999.90;;
13250;SDS011;6692;50.710;7.180;2023-07-13T05:35:27;1999.90;;;999.90;;
13250;SDS011;6692;50.710;7.180;2023-07-13T05:37:28;1999.90;;;999.90;;
13250;SDS011;6692;50.710;7.180;2023-07-13T05:39:28;1999.90;;;999.90;;
13250;SDS011;6692;50.710;7.180;2023-07-13T05:41:30;1999.90;;;999.90;;
13250;SDS011;6692;50.710;7.180;2023-07-13T05:43:30;1999.90;;;999.90;;
13250;SDS011;6692;50.710;7.180;2023-07-13T05:45:31;1999.90;;;999.90;;
13250;SDS011;6692;50.710;7.180;2023-07-13T05:47:32;1999.90;;;999.90;;
13250;SDS011;6692;50.710;7.180;2023-07-13T05:49:33;1999.90;;;999.90;;
13250;SDS011;6692;50.710;7.180;2023-07-13T05:51:34;1999.90;;;999.90;;
13250;SDS011;6692;50.710;7.180;2023-07-13T05:53:35;1999.90;;;999.90;;
13250;SDS011;6692;50.710;7.180;2023-07-13T05:55:35;1999.90;;;999.90;;
13250;SDS011;6692;50.710;7.180;2023-07-13T05:57:36;1999.90;;;999.90;;
13250;SDS011;6692;50.710;7.180;2023-07-13T05:59:37;1999.90;;;999.90;;
13250;SDS011;6692;50.710;7.180;2023-07-13T06:01:37;1999.90;;;999.90;;
13250;SDS011;6692;50.710;7.180;2023-07-13T06:03:38;1999.90;;;999.90;;
13250;SDS011;6692;50.710;7.180;2023-07-13T06:05:39;1999.90;;;999.90;;
13250;SDS011;6692;50.710;7.180;2023-07-13T06:07:40;1999.90;;;999.90;;
13250;SDS011;6692;50.710;7.180;2023-07-13T06:09:40;1999.90;;;999.90;;
13250;SDS011;6692;50.710;7.180;2023-07-13T06:11:41;1999.90;;;999.90;;
13250;SDS011;6692;50.710;7.180;2023-07-13T06:13:41;1999.90;;;999.90;;
13250;SDS011;6692;50.710;7.180;2023-07-13T06:15:42;1999.90;;;999.90;;
13250;SDS011;6692;50.710;7.180;2023-07-13T06:17:44;1999.90;;;999.90;;
13250;SDS011;6692;50.710;7.180;2023-07-13T06:19:44;1999.90;;;999.90;;
13250;SDS011;6692;50.710;7.180;2023-07-13T06:21:46;1999.90;;;999.90;;
13250;SDS011;6692;50.710;7.180;2023-07-13T06:23:47;1999.90;;;999.90;;
13250;SDS011;6692;50.710;7.180;2023-07-13T06:25:48;1999.90;;;999.90;;
13250;SDS011;6692;50.710;7.180;2023-07-13T06:27:49;1999.90;;;999.90;;
13250;SDS011;6692;50.710;7.180;2023-07-13T06:29:49;1999.90;;;999.90;;
13250;SDS011;6692;50.710;7.180;2023-07-13T06:31:51;1999.90;;;999.90;;
13250;SDS011;6692;50.710;7.180;2023-07-13T06:33:51;1999.90;;;999.90;;
13250;SDS011;6692;50.710;7.180;2023-07-13T06:35:53;1999.90;;;999.90;;
13250;SDS011;6692;50.710;7.180;2023-07-13T06:37:53;1999.90;;;999.90;;
13250;SDS011;6692;50.710;7.180;2023-07-13T06:39:55;1999.90;;;999.90;;
13250;SDS011;6692;50.710;7.180;2023-07-13T06:41:56;1999.90;;;999.90;;
13250;SDS011;6692;50.710;7.180;2023-07-13T06:43:56;1999.90;;;999.90;;
13250;SDS011;6692;50.710;7.180;2023-07-13T06:45:58;1999.90;;;999.90;;
13250;SDS011;6692;50.710;7.180;2023-07-13T06:47:58;1999.90;;;999.90;;
13250;SDS011;6692;50.710;7.180;2023-07-13T06:50:00;1999.90;;;999.90;;
13250;SDS011;6692;50.710;7.180;2023-07-13T06:52:00;1999.90;;;999.90;;
13250;SDS011;6692;50.710;7.180;2023-07-13T06:54:01;1999.90;;;999.90;;
13250;SDS011;6692;50.710;7.180;2023-07-13T06:56:03;1999.90;;;999.90;;
13250;SDS011;6692;50.710;7.180;2023-07-13T06:58:04;1999.90;;;999.90;;
13250;SDS011;6692;50.710;7.180;2023-07-13T07:00:05;1999.90;;;999.90;;
13250;SDS011;6692;50.710;7.180;2023-07-13T07:02:07;1999.90;;;999.90;;
13250;SDS011;6692;50.710;7.180;2023-07-13T07:04:07;1999.90;;;999.90;;
13250;SDS011;6692;50.710;7.180;2023-07-13T07:06:23;1999.90;;;999.90;;
13250;SDS011;6692;50.710;7.180;2023-07-13T07:08:24;1999.90;;;999.90;;
13250;SDS011;6692;50.710;7.180;2023-07-13T07:10:25;1999.90;;;999.90;;
13250;SDS011;6692;50.710;7.180;2023-07-13T07:12:25;1999.90;;;999.90;;
13250;SDS011;6692;50.710;7.180;2023-07-13T07:14:26;1999.90;;;999.90;;
13250;SDS011;6692;50.710;7.180;2023-07-13T07:16:27;1999.90;;;999.90;;
13250;SDS011;6692;50.710;7.180;2023-07-13T07:18:28;1999.90;;;999.90;;
13250;SDS011;6692;50.710;7.180;2023-07-13T07:20:29;1999.90;;;999.90;;
13250;SDS011;6692;50.710;7.180;2023-07-13T07:22:30;1999.90;;;999.90;;
13250;SDS011;6692;50.710;7.180;2023-07-13T07:24:31;1999.90;;;999.90;;
13250;SDS011;6692;50.710;7.180;2023-07-13T07:26:31;1999.90;;;999.90;;
13250;SDS011;6692;50.710;7.180;2023-07-13T07:28:32;1999.90;;;999.90;;
13250;SDS011;6692;50.710;7.180;2023-07-13T07:30:34;1999.90;;;999.90;;
13250;SDS011;6692;50.710;7.180;2023-07-13T07:32:34;1999.90;;;999.90;;
13250;SDS011;6692;50.710;7.180;2023-07-13T07:34:35;1999.90;;;999.90;;
13250;SDS011;6692;50.710;7.180;2023-07-13T07:36:36;1999.90;;;999.90;;
13250;SDS011;6692;50.710;7.180;2023-07-13T07:38:37;1999.90;;;999.90;;
13250;SDS011;6692;50.710;7.180;2023-07-13T07:40:38;1999.90;;;999.90;;
13250;SDS011;6692;50.710;7.180;2023-07-13T07:42:38;1999.90;;;999.90;;
13250;SDS011;6692;50.710;7.180;2023-07-13T07:44:40;1999.90;;;999.90;;
13250;SDS011;6692;50.710;7.180;2023-07-13T07:46:40;1999.90;;;999.90;;
13250;SDS011;6692;50.710;7.180;2023-07-13T07:48:41;1999.90;;;999.90;;
13250;SDS011;6692;50.710;7.180;2023-07-13T07:50:41;1999.90;;;999.90;;
13250;SDS011;6692;50.710;7.180;2023-07-13T07:52:42;1999.90;;;999.90;;
13250;SDS011;6692;50.710;7.180;2023-07-13T07:54:43;1999.90;;;999.90;;
13250;SDS011;6692;50.710;7.180;2023-07-13T07:56:44;1999.90;;;999.90;;
13250;SDS011;6692;50.710;7.180;2023-07-13T07:58:45;1999.90;;;999.90;;
13250;SDS011;6692;50.710;7.180;2023-07-13T08:00:45;1999.90;;;999.90;;
13250;SDS011;6692;50.710;7.180;2023-07-13T08:02:47;1999.90;;;999.90;;
13250;SDS011;6692;50.710;7.180;2023-07-13T08:04:48;1999.90;;;999.90;;
13250;SDS011;6692;50.710;7.180;2023-07-13T08:06:48;1999.90;;;999.90;;
13250;SDS011;6692;50.710;7.180;2023-07-13T08:08:49;1999.90;;;999.90;;
13250;SDS011;6692;50.710;7.180;2023-07-13T08:10:50;1999.90;;;999.90;;
13250;SDS011;6692;50.710;7.180;2023-07-13T08:12:50;1999.90;;;999.90;;
13250;SDS011;6692;50.710;7.180;2023-07-13T08:14:51;1999.90;;;999.90;;
13250;SDS011;6692;50.710;7.180;2023-07-13T08:16:52;1999.90;;;999.90;;
13250;SDS011;6692;50.710;7.180;2023-07-13T08:18:53;1999.90;;;999.90;;
13250;SDS011;6692;50.710;7.180;2023-07-13T08:20:54;1999.90;;;999.90;;
13250;SDS011;6692;50.710;7.180;2023-07-13T08:22:56;1999.90;;;999.90;;
13250;SDS011;6692;50.710;7.180;2023-07-13T08:24:58;1999.90;;;999.90;;
13250;SDS011;6692;50.710;7.180;2023-07-13T08:26:58;1999.90;;;999.90;;
13250;SDS011;6692;50.710;7.180;2023-07-13T08:28:59;1999.90;;;999.90;;
13250;SDS011;6692;50.710;7.180;2023-07-13T08:31:01;1999.90;;;999.90;;
13250;SDS011;6692;50.710;7.180;2023-07-13T08:33:01;1999.90;;;999.90;;
13250;SDS011;6692;50.710;7.180;2023-07-13T08:35:02;1999.90;;;999.90;;
13250;SDS011;6692;50.710;7.180;2023-07-13T08:37:04;1999.90;;;999.90;;
13250;SDS011;6692;50.710;7.180;2023-07-13T08:39:04;1999.90;;;999.90;;
13250;SDS011;6692;50.710;7.180;2023-07-13T08:41:12;1999.90;;;999.90;;
13250;SDS011;6692;50.710;7.180;2023-07-13T08:43:15;1999.90;;;999.90;;
13250;SDS011;6692;50.710;7.180;2023-07-13T08:45:20;1999.90;;;999.90;;
13250;SDS011;6692;50.710;7.180;2023-07-13T08:47:19;1999.90;;;999.90;;
13250;SDS011;6692;50.710;7.180;2023-07-13T08:49:21;1999.90;;;999.90;;
13250;SDS011;6692;50.710;7.180;2023-07-13T08:51:24;1999.90;;;999.90;;
13250;SDS011;6692;50.710;7.180;2023-07-13T08:53:22;1999.90;;;999.90;;
13250;SDS011;6692;50.710;7.180;2023-07-13T08:55:25;1999.90;;;999.90;;
13250;SDS011;6692;50.710;7.180;2023-07-13T08:57:27;1999.90;;;999.90;;
13250;SDS011;6692;50.710;7.180;2023-07-13T08:59:27;1999.90;;;999.90;;
13250;SDS011;6692;50.710;7.180;2023-07-13T09:03:52;1999.90;;;999.90;;
13250;SDS011;6692;50.710;7.180;2023-07-13T09:05:53;1999.90;;;999.90;;
13250;SDS011;6692;50.710;7.180;2023-07-13T09:07:58;1999.90;;;999.90;;
13250;SDS011;6692;50.710;7.180;2023-07-13T09:10:18;1999.90;;;999.90;;
13250;SDS011;6692;50.710;7.180;2023-07-13T09:12:22;1999.90;;;999.90;;
13250;SDS011;6692;50.710;7.180;2023-07-13T09:16:42;1999.90;;;999.90;;
13250;SDS011;6692;50.710;7.180;2023-07-13T09:18:45;1999.90;;;999.90;;
13250;SDS011;6692;50.710;7.180;2023-07-13T09:20:46;1999.90;;;999.90;;
13250;SDS011;6692;50.710;7.180;2023-07-13T09:22:46;1999.90;;;999.90;;
13250;SDS011;6692;50.710;7.180;2023-07-13T09:24:52;1999.90;;;999.90;;
13250;SDS011;6692;50.710;7.180;2023-07-13T09:26:51;1999.90;;;999.90;;
13250;SDS011;6692;50.710;7.180;2023-07-13T09:28:58;1999.90;;;999.90;;
13250;SDS011;6692;50.710;7.180;2023-07-13T09:31:19;1999.90;;;999.90;;
13250;SDS011;6692;50.710;7.180;2023-07-13T09:33:26;1999.90;;;999.90;;
13250;SDS011;6692;50.710;7.180;2023-07-13T09:35:28;1999.90;;;999.90;;
13250;SDS011;6692;50.710;7.180;2023-07-13T09:37:31;1999.90;;;999.90;;
13250;SDS011;6692;50.710;7.180;2023-07-13T09:39:30;1999.90;;;999.90;;
13250;SDS011;6692;50.710;7.180;2023-07-13T09:41:47;1999.90;;;999.90;;
13250;SDS011;6692;50.710;7.180;2023-07-13T09:44:27;1999.90;;;999.90;;
13250;SDS011;6692;50.710;7.180;2023-07-13T09:46:19;1999.90;;;999.90;;
13250;SDS011;6692;50.710;7.180;2023-07-13T09:48:22;1999.90;;;999.90;;
13250;SDS011;6692;50.710;7.180;2023-07-13T09:50:23;1999.90;;;999.90;;
13250;SDS011;6692;50.710;7.180;2023-07-13T09:52:24;1999.90;;;999.90;;
13250;SDS011;6692;50.710;7.180;2023-07-13T09:54:25;1999.90;;;999.90;;
13250;SDS011;6692;50.710;7.180;2023-07-13T09:56:26;1999.90;;;999.90;;
13250;SDS011;6692;50.710;7.180;2023-07-13T09:58:27;1999.90;;;999.90;;
13250;SDS011;6692;50.710;7.180;2023-07-13T10:00:28;1999.90;;;999.90;;
13250;SDS011;6692;50.710;7.180;2023-07-13T10:02:30;1999.90;;;999.90;;
13250;SDS011;6692;50.710;7.180;2023-07-13T10:04:31;1999.90;;;999.90;;
13250;SDS011;6692;50.710;7.180;2023-07-13T10:06:31;1999.90;;;999.90;;
13250;SDS011;6692;50.710;7.180;2023-07-13T10:08:32;1999.90;;;999.90;;
13250;SDS011;6692;50.710;7.180;2023-07-13T10:10:33;1999.90;;;999.90;;
13250;SDS011;6692;50.710;7.180;2023-07-13T10:12:35;1999.90;;;999.90;;
13250;SDS011;6692;50.710;7.180;2023-07-13T10:14:34;1999.90;;;999.90;;
13250;SDS011;6692;50.710;7.180;2023-07-13T10:16:35;1999.90;;;999.90;;
13250;SDS011;6692;50.710;7.180;2023-07-13T10:20:54;1999.90;;;999.90;;
13250;SDS011;6692;50.710;7.180;2023-07-13T10:22:57;1999.90;;;999.90;;
13250;SDS011;6692;50.710;7.180;2023-07-13T10:24:55;1999.90;;;999.90;;
13250;SDS011;6692;50.710;7.180;2023-07-13T10:27:02;1999.90;;;999.90;;
13250;SDS011;6692;50.710;7.180;2023-07-13T10:29:08;1999.90;;;999.90;;
13250;SDS011;6692;50.710;7.180;2023-07-13T10:31:10;1999.90;;;999.90;;
13250;SDS011;6692;50.710;7.180;2023-07-13T10:33:10;1999.90;;;999.90;;
13250;SDS011;6692;50.710;7.180;2023-07-13T10:35:12;1999.90;;;999.90;;
13250;SDS011;6692;50.710;7.180;2023-07-13T10:37:16;927.80;;;584.97;;
13250;SDS011;6692;50.710;7.180;2023-07-13T10:39:17;363.20;;;350.30;;
13250;SDS011;6692;50.710;7.180;2023-07-13T10:41:18;394.30;;;379.90;;
13250;SDS011;6692;50.710;7.180;2023-07-13T10:43:22;931.83;;;588.87;;
13250;SDS011;6692;50.710;7.180;2023-07-13T10:45:21;1999.90;;;999.90;;
13250;SDS011;6692;50.710;7.180;2023-07-13T10:47:22;1999.90;;;999.90;;
13250;SDS011;6692;50.710;7.180;2023-07-13T10:49:23;1999.90;;;999.90;;
13250;SDS011;6692;50.710;7.180;2023-07-13T10:51:24;1999.90;;;999.90;;
13250;SDS011;6692;50.710;7.180;2023-07-13T10:53:28;1999.90;;;999.90;;
13250;SDS011;6692;50.710;7.180;2023-07-13T10:55:30;1999.90;;;999.90;;
13250;SDS011;6692;50.710;7.180;2023-07-13T10:57:31;1999.90;;;999.90;;
13250;SDS011;6692;50.710;7.180;2023-07-13T10:59:32;1999.90;;;999.90;;
13250;SDS011;6692;50.710;7.180;2023-07-13T11:01:39;1999.90;;;999.90;;
13250;SDS011;6692;50.710;7.180;2023-07-13T11:03:47;1999.90;;;999.90;;
13250;SDS011;6692;50.710;7.180;2023-07-13T11:05:50;377.07;;;363.13;;
13250;SDS011;6692;50.710;7.180;2023-07-13T11:07:52;381.57;;;367.70;;
13250;SDS011;6692;50.710;7.180;2023-07-13T11:09:52;379.97;;;366.27;;
13250;SDS011;6692;50.710;7.180;2023-07-13T11:11:52;361.47;;;348.53;;
13250;SDS011;6692;50.710;7.180;2023-07-13T11:13:58;343.20;;;331.00;;
13250;SDS011;6692;50.710;7.180;2023-07-13T11:15:58;324.17;;;312.87;;
13250;SDS011;6692;50.710;7.180;2023-07-13T11:18:02;347.10;;;334.60;;
13250;SDS011;6692;50.710;7.180;2023-07-13T11:22:23;297.43;;;287.23;;
13250;SDS011;6692;50.710;7.180;2023-07-13T11:24:28;277.33;;;267.73;;
13250;SDS011;6692;50.710;7.180;2023-07-13T11:28:38;253.80;;;245.20;;
13250;SDS011;6692;50.710;7.180;2023-07-13T11:30:43;258.37;;;249.23;;
13250;SDS011;6692;50.710;7.180;2023-07-13T11:33:13;266.47;;;257.20;;
13250;SDS011;6692;50.710;7.180;2023-07-13T11:35:21;274.17;;;264.77;;
13250;SDS011;6692;50.710;7.180;2023-07-13T11:37:20;299.40;;;289.07;;
13250;SDS011;6692;50.710;7.180;2023-07-13T11:39:24;319.10;;;308.07;;
13250;SDS011;6692;50.710;7.180;2023-07-13T11:41:30;323.40;;;312.07;;
13250;SDS011;6692;50.710;7.180;2023-07-13T11:43:28;307.63;;;296.50;;